sensor_id;sensor_type;location;lat;lon;timestamp;temperature;humidity
22966;DHT22;11649;48.090;9.754;2024-03-02T00:01:35;4.80;99.90
22966;DHT22;11649;48.090;9.754;2024-03-02T00:04:04;4.70;99.90
22966;DHT22;11649;48.090;9.754;2024-03-02T00:06:30;4.50;99.90
22966;DHT22;11649;48.090;9.754;2024-03-02T00:08:58;4.70;99.90
22966;DHT22;11649;48.090;9.754;2024-03-02T00:11:25;4.80;99.90
22966;DHT22;11649;48.090;9.754;2024-03-02T00:13:53;4.90;99.90
22966;DHT22;11649;48.090;9.754;2024-03-02T00:16:20;4.90;99.90
22966;DHT22;11649;48.090;9.754;2024-03-02T00:18:47;4.90;99.90
22966;DHT22;11649;48.090;9.754;2024-03-02T00:21:14;4.90;99.90
22966;DHT22;11649;48.090;9.754;2024-03-02T00:23:43;5.00;99.90
22966;DHT22;11649;48.090;9.754;2024-03-02T00:26:11;5.00;99.90
22966;DHT22;11649;48.090;9.754;2024-03-02T00:28:39;5.10;99.90
22966;DHT22;11649;48.090;9.754;2024-03-02T00:31:11;5.20;99.90
22966;DHT22;11649;48.090;9.754;2024-03-02T00:33:42;5.20;99.90
22966;DHT22;11649;48.090;9.754;2024-03-02T00:36:14;5.20;99.90
22966;DHT22;11649;48.090;9.754;2024-03-02T00:38:51;5.10;99.90
22966;DHT22;11649;48.090;9.754;2024-03-02T00:41:27;5.10;99.90
22966;DHT22;11649;48.090;9.754;2024-03-02T00:43:59;5.00;99.90
22966;DHT22;11649;48.090;9.754;2024-03-02T00:46:36;4.90;99.90
22966;DHT22;11649;48.090;9.754;2024-03-02T00:49:04;5.00;99.90
22966;DHT22;11649;48.090;9.754;2024-03-02T00:51:33;5.10;99.90
22966;DHT22;11649;48.090;9.754;2024-03-02T00:54:08;5.00;99.90
22966;DHT22;11649;48.090;9.754;2024-03-02T00:56:35;5.00;99.90
22966;DHT22;11649;48.090;9.754;2024-03-02T00:59:02;5.10;99.90
22966;DHT22;11649;48.090;9.754;2024-03-02T01:01:29;5.20;99.90
22966;DHT22;11649;48.090;9.754;2024-03-02T01:03:56;5.10;99.90
22966;DHT22;11649;48.090;9.754;2024-03-02T01:06:23;5.10;99.90
22966;DHT22;11649;48.090;9.754;2024-03-02T01:08:50;5.00;99.90
22966;DHT22;11649;48.090;9.754;2024-03-02T01:11:19;4.90;99.90
22966;DHT22;11649;48.090;9.754;2024-03-02T01:13:49;4.90;99.90
22966;DHT22;11649;48.090;9.754;2024-03-02T01:16:15;5.10;99.90
22966;DHT22;11649;48.090;9.754;2024-03-02T01:18:42;5.10;99.90
22966;DHT22;11649;48.090;9.754;2024-03-02T01:21:09;5.00;99.90
22966;DHT22;11649;48.090;9.754;2024-03-02T01:23:36;4.70;99.90
22966;DHT22;11649;48.090;9.754;2024-03-02T01:26:02;4.60;99.90
22966;DHT22;11649;48.090;9.754;2024-03-02T01:28:29;4.50;99.90
22966;DHT22;11649;48.090;9.754;2024-03-02T01:30:56;4.30;99.90
22966;DHT22;11649;48.090;9.754;2024-03-02T01:33:23;4.50;99.90
22966;DHT22;11649;48.090;9.754;2024-03-02T01:35:50;4.70;99.90
22966;DHT22;11649;48.090;9.754;2024-03-02T01:38:16;4.90;99.90
22966;DHT22;11649;48.090;9.754;2024-03-02T01:40:43;5.00;99.90
22966;DHT22;11649;48.090;9.754;2024-03-02T01:43:11;5.00;99.90
22966;DHT22;11649;48.090;9.754;2024-03-02T01:45:38;5.10;99.90
22966;DHT22;11649;48.090;9.754;2024-03-02T01:48:07;5.00;99.90
22966;DHT22;11649;48.090;9.754;2024-03-02T01:50:34;4.80;99.90
22966;DHT22;11649;48.090;9.754;2024-03-02T01:53:02;4.70;99.90
22966;DHT22;11649;48.090;9.754;2024-03-02T01:55:31;4.90;99.90
22966;DHT22;11649;48.090;9.754;2024-03-02T01:57:59;5.00;99.90
22966;DHT22;11649;48.090;9.754;2024-03-02T02:00:27;5.00;99.90
22966;DHT22;11649;48.090;9.754;2024-03-02T02:02:54;5.10;99.90
22966;DHT22;11649;48.090;9.754;2024-03-02T02:05:22;4.80;99.90
22966;DHT22;11649;48.090;9.754;2024-03-02T02:07:49;4.50;99.90
22966;DHT22;11649;48.090;9.754;2024-03-02T02:10:16;4.60;99.90
22966;DHT22;11649;48.090;9.754;2024-03-02T02:12:43;4.60;99.90
22966;DHT22;11649;48.090;9.754;2024-03-02T02:15:26;4.80;99.90
22966;DHT22;11649;48.090;9.754;2024-03-02T02:17:55;4.90;99.90
22966;DHT22;11649;48.090;9.754;2024-03-02T02:20:22;5.00;99.90
22966;DHT22;11649;48.090;9.754;2024-03-02T02:22:59;5.00;99.90
22966;DHT22;11649;48.090;9.754;2024-03-02T02:25:35;4.90;99.90
22966;DHT22;11649;48.090;9.754;2024-03-02T02:28:02;4.90;99.90
22966;DHT22;11649;48.090;9.754;2024-03-02T02:30:30;4.80;99.90
22966;DHT22;11649;48.090;9.754;2024-03-02T02:32:58;4.90;99.90
22966;DHT22;11649;48.090;9.754;2024-03-02T02:35:25;4.90;99.90
22966;DHT22;11649;48.090;9.754;2024-03-02T02:37:54;5.00;99.90
22966;DHT22;11649;48.090;9.754;2024-03-02T02:40:22;5.00;99.90
22966;DHT22;11649;48.090;9.754;2024-03-02T02:42:49;5.00;99.90
22966;DHT22;11649;48.090;9.754;2024-03-02T02:45:16;5.00;99.90
22966;DHT22;11649;48.090;9.754;2024-03-02T02:47:44;4.80;99.90
22966;DHT22;11649;48.090;9.754;2024-03-02T02:50:12;4.80;99.90
22966;DHT22;11649;48.090;9.754;2024-03-02T02:52:40;4.90;99.90
22966;DHT22;11649;48.090;9.754;2024-03-02T02:55:09;4.90;99.90
22966;DHT22;11649;48.090;9.754;2024-03-02T02:57:38;4.90;99.90
22966;DHT22;11649;48.090;9.754;2024-03-02T03:00:24;4.90;99.90
22966;DHT22;11649;48.090;9.754;2024-03-02T03:02:51;4.90;99.90
22966;DHT22;11649;48.090;9.754;2024-03-02T03:05:18;4.90;99.90
22966;DHT22;11649;48.090;9.754;2024-03-02T03:07:45;4.90;99.90
22966;DHT22;11649;48.090;9.754;2024-03-02T03:10:12;4.90;99.90
22966;DHT22;11649;48.090;9.754;2024-03-02T03:12:41;4.80;99.90
22966;DHT22;11649;48.090;9.754;2024-03-02T03:15:10;4.80;99.90
22966;DHT22;11649;48.090;9.754;2024-03-02T03:17:36;4.80;99.90
22966;DHT22;11649;48.090;9.754;2024-03-02T03:20:05;4.80;99.90
22966;DHT22;11649;48.090;9.754;2024-03-02T03:22:33;4.80;99.90
22966;DHT22;11649;48.090;9.754;2024-03-02T03:24:59;4.80;99.90
22966;DHT22;11649;48.090;9.754;2024-03-02T03:27:27;4.80;99.90
22966;DHT22;11649;48.090;9.754;2024-03-02T03:29:54;4.80;99.90
22966;DHT22;11649;48.090;9.754;2024-03-02T03:32:21;4.80;99.90
22966;DHT22;11649;48.090;9.754;2024-03-02T03:34:48;4.70;99.90
22966;DHT22;11649;48.090;9.754;2024-03-02T03:37:15;4.80;99.90
22966;DHT22;11649;48.090;9.754;2024-03-02T03:39:42;4.70;99.90
22966;DHT22;11649;48.090;9.754;2024-03-02T03:42:09;4.70;99.90
22966;DHT22;11649;48.090;9.754;2024-03-02T03:44:36;4.70;99.90
22966;DHT22;11649;48.090;9.754;2024-03-02T03:47:02;4.50;99.90
22966;DHT22;11649;48.090;9.754;2024-03-02T03:49:29;4.30;99.90
22966;DHT22;11649;48.090;9.754;2024-03-02T03:51:56;4.50;99.90
22966;DHT22;11649;48.090;9.754;2024-03-02T03:54:23;4.60;99.90
22966;DHT22;11649;48.090;9.754;2024-03-02T03:56:50;4.80;99.90
22966;DHT22;11649;48.090;9.754;2024-03-02T03:59:17;4.90;99.90
22966;DHT22;11649;48.090;9.754;2024-03-02T04:01:43;4.90;99.90
22966;DHT22;11649;48.090;9.754;2024-03-02T04:04:10;4.70;99.90
22966;DHT22;11649;48.090;9.754;2024-03-02T04:06:37;4.40;99.90
22966;DHT22;11649;48.090;9.754;2024-03-02T04:09:04;4.10;99.90
22966;DHT22;11649;48.090;9.754;2024-03-02T04:11:30;4.10;99.90
22966;DHT22;11649;48.090;9.754;2024-03-02T04:13:57;4.30;99.90
22966;DHT22;11649;48.090;9.754;2024-03-02T04:16:25;4.30;99.90
22966;DHT22;11649;48.090;9.754;2024-03-02T04:18:51;4.30;99.90
22966;DHT22;11649;48.090;9.754;2024-03-02T04:21:19;4.40;99.90
22966;DHT22;11649;48.090;9.754;2024-03-02T04:23:45;4.60;99.90
22966;DHT22;11649;48.090;9.754;2024-03-02T04:26:12;4.70;99.90
22966;DHT22;11649;48.090;9.754;2024-03-02T04:28:39;4.70;99.90
22966;DHT22;11649;48.090;9.754;2024-03-02T04:31:06;4.80;99.90
22966;DHT22;11649;48.090;9.754;2024-03-02T04:33:33;4.80;99.90
22966;DHT22;11649;48.090;9.754;2024-03-02T04:36:00;4.80;99.90
22966;DHT22;11649;48.090;9.754;2024-03-02T04:38:26;4.80;99.90
22966;DHT22;11649;48.090;9.754;2024-03-02T04:40:53;4.80;99.90
22966;DHT22;11649;48.090;9.754;2024-03-02T04:43:20;4.80;99.90
22966;DHT22;11649;48.090;9.754;2024-03-02T04:45:47;4.70;99.90
22966;DHT22;11649;48.090;9.754;2024-03-02T04:48:14;4.60;99.90
22966;DHT22;11649;48.090;9.754;2024-03-02T04:50:41;4.50;99.90
22966;DHT22;11649;48.090;9.754;2024-03-02T04:53:08;4.50;99.90
22966;DHT22;11649;48.090;9.754;2024-03-02T04:55:35;4.40;99.90
22966;DHT22;11649;48.090;9.754;2024-03-02T04:58:01;4.30;99.90
22966;DHT22;11649;48.090;9.754;2024-03-02T05:00:28;4.30;99.90
22966;DHT22;11649;48.090;9.754;2024-03-02T05:02:55;4.20;99.90
22966;DHT22;11649;48.090;9.754;2024-03-02T05:05:22;4.00;99.90
22966;DHT22;11649;48.090;9.754;2024-03-02T05:07:49;3.90;99.90
22966;DHT22;11649;48.090;9.754;2024-03-02T05:10:16;3.90;99.90
22966;DHT22;11649;48.090;9.754;2024-03-02T05:12:43;3.90;99.90
22966;DHT22;11649;48.090;9.754;2024-03-02T05:15:11;3.80;99.90
22966;DHT22;11649;48.090;9.754;2024-03-02T05:17:38;3.60;99.90
22966;DHT22;11649;48.090;9.754;2024-03-02T05:20:07;3.50;99.90
22966;DHT22;11649;48.090;9.754;2024-03-02T05:22:37;3.70;99.90
22966;DHT22;11649;48.090;9.754;2024-03-02T05:25:04;3.70;99.90
22966;DHT22;11649;48.090;9.754;2024-03-02T05:27:32;3.70;99.90
22966;DHT22;11649;48.090;9.754;2024-03-02T05:30:00;3.80;99.90
22966;DHT22;11649;48.090;9.754;2024-03-02T05:32:27;3.80;99.90
22966;DHT22;11649;48.090;9.754;2024-03-02T05:34:54;4.00;99.90
22966;DHT22;11649;48.090;9.754;2024-03-02T05:37:21;4.10;99.90
22966;DHT22;11649;48.090;9.754;2024-03-02T05:39:48;4.10;99.90
22966;DHT22;11649;48.090;9.754;2024-03-02T05:42:16;4.00;99.90
22966;DHT22;11649;48.090;9.754;2024-03-02T05:44:43;3.70;99.90
22966;DHT22;11649;48.090;9.754;2024-03-02T05:47:10;3.70;99.90
22966;DHT22;11649;48.090;9.754;2024-03-02T05:49:37;3.70;99.90
22966;DHT22;11649;48.090;9.754;2024-03-02T05:52:04;3.60;99.90
22966;DHT22;11649;48.090;9.754;2024-03-02T05:54:31;3.60;99.90
22966;DHT22;11649;48.090;9.754;2024-03-02T05:56:58;3.70;99.90
22966;DHT22;11649;48.090;9.754;2024-03-02T06:02:51;3.90;99.90
22966;DHT22;11649;48.090;9.754;2024-03-02T06:05:18;3.80;99.90
22966;DHT22;11649;48.090;9.754;2024-03-02T06:07:45;3.70;99.90
22966;DHT22;11649;48.090;9.754;2024-03-02T06:10:12;3.50;99.90
22966;DHT22;11649;48.090;9.754;2024-03-02T06:12:40;3.20;99.90
22966;DHT22;11649;48.090;9.754;2024-03-02T06:15:07;3.00;99.90
22966;DHT22;11649;48.090;9.754;2024-03-02T06:17:37;3.20;99.90
22966;DHT22;11649;48.090;9.754;2024-03-02T06:20:05;3.40;99.90
22966;DHT22;11649;48.090;9.754;2024-03-02T06:22:34;3.50;99.90
22966;DHT22;11649;48.090;9.754;2024-03-02T06:25:01;3.70;99.90
22966;DHT22;11649;48.090;9.754;2024-03-02T06:27:28;3.80;99.90
22966;DHT22;11649;48.090;9.754;2024-03-02T06:29:55;3.80;99.90
22966;DHT22;11649;48.090;9.754;2024-03-02T06:32:22;3.90;99.90
22966;DHT22;11649;48.090;9.754;2024-03-02T06:34:49;4.00;99.90
22966;DHT22;11649;48.090;9.754;2024-03-02T06:37:16;4.10;99.90
22966;DHT22;11649;48.090;9.754;2024-03-02T06:39:43;4.10;99.90
22966;DHT22;11649;48.090;9.754;2024-03-02T06:42:10;4.20;99.90
22966;DHT22;11649;48.090;9.754;2024-03-02T06:44:37;4.20;99.90
22966;DHT22;11649;48.090;9.754;2024-03-02T06:47:04;4.20;99.90
22966;DHT22;11649;48.090;9.754;2024-03-02T06:49:31;4.10;99.90
22966;DHT22;11649;48.090;9.754;2024-03-02T06:51:58;3.90;99.90
22966;DHT22;11649;48.090;9.754;2024-03-02T06:54:25;3.90;99.90
22966;DHT22;11649;48.090;9.754;2024-03-02T06:56:51;3.90;99.90
22966;DHT22;11649;48.090;9.754;2024-03-02T06:59:18;4.00;99.90
22966;DHT22;11649;48.090;9.754;2024-03-02T07:01:45;4.10;99.90
22966;DHT22;11649;48.090;9.754;2024-03-02T07:04:12;4.00;99.90
22966;DHT22;11649;48.090;9.754;2024-03-02T07:06:39;4.10;99.90
22966;DHT22;11649;48.090;9.754;2024-03-02T07:09:05;4.20;99.90
22966;DHT22;11649;48.090;9.754;2024-03-02T07:11:33;4.30;99.90
22966;DHT22;11649;48.090;9.754;2024-03-02T07:14:01;4.50;99.90
22966;DHT22;11649;48.090;9.754;2024-03-02T07:16:28;4.60;99.90
22966;DHT22;11649;48.090;9.754;2024-03-02T07:18:56;4.30;99.90
22966;DHT22;11649;48.090;9.754;2024-03-02T07:21:23;4.20;99.90
22966;DHT22;11649;48.090;9.754;2024-03-02T07:23:51;4.20;99.90
22966;DHT22;11649;48.090;9.754;2024-03-02T07:26:17;4.20;99.90
22966;DHT22;11649;48.090;9.754;2024-03-02T07:28:50;4.10;99.90
22966;DHT22;11649;48.090;9.754;2024-03-02T07:31:17;4.20;99.90
22966;DHT22;11649;48.090;9.754;2024-03-02T07:33:45;4.30;99.90
22966;DHT22;11649;48.090;9.754;2024-03-02T07:36:13;4.50;99.90
22966;DHT22;11649;48.090;9.754;2024-03-02T07:38:40;4.70;99.90
22966;DHT22;11649;48.090;9.754;2024-03-02T07:41:08;5.00;99.90
22966;DHT22;11649;48.090;9.754;2024-03-02T07:43:35;5.10;99.90
22966;DHT22;11649;48.090;9.754;2024-03-02T07:46:02;5.20;99.90
22966;DHT22;11649;48.090;9.754;2024-03-02T07:48:29;5.30;99.90
22966;DHT22;11649;48.090;9.754;2024-03-02T07:50:57;5.30;99.90
22966;DHT22;11649;48.090;9.754;2024-03-02T07:53:24;5.30;99.90
22966;DHT22;11649;48.090;9.754;2024-03-02T07:55:51;5.40;99.90
22966;DHT22;11649;48.090;9.754;2024-03-02T07:58:18;5.50;99.90
22966;DHT22;11649;48.090;9.754;2024-03-02T08:00:46;5.60;99.90
22966;DHT22;11649;48.090;9.754;2024-03-02T08:03:14;5.60;99.90
22966;DHT22;11649;48.090;9.754;2024-03-02T08:05:41;5.70;99.90
22966;DHT22;11649;48.090;9.754;2024-03-02T08:08:08;5.70;99.90
22966;DHT22;11649;48.090;9.754;2024-03-02T08:10:35;5.80;99.90
22966;DHT22;11649;48.090;9.754;2024-03-02T08:13:02;5.90;99.90
22966;DHT22;11649;48.090;9.754;2024-03-02T08:15:29;5.80;99.90
22966;DHT22;11649;48.090;9.754;2024-03-02T08:17:56;5.80;99.90
22966;DHT22;11649;48.090;9.754;2024-03-02T08:20:23;6.00;99.90
22966;DHT22;11649;48.090;9.754;2024-03-02T08:22:50;6.20;99.90
22966;DHT22;11649;48.090;9.754;2024-03-02T08:25:17;6.30;99.90
22966;DHT22;11649;48.090;9.754;2024-03-02T08:27:44;6.30;99.90
22966;DHT22;11649;48.090;9.754;2024-03-02T08:30:11;6.30;99.90
22966;DHT22;11649;48.090;9.754;2024-03-02T08:32:38;6.40;99.90
22966;DHT22;11649;48.090;9.754;2024-03-02T08:35:07;6.50;99.90
22966;DHT22;11649;48.090;9.754;2024-03-02T08:37:34;6.60;99.90
22966;DHT22;11649;48.090;9.754;2024-03-02T08:40:01;6.70;99.90
22966;DHT22;11649;48.090;9.754;2024-03-02T08:42:28;6.80;99.90
22966;DHT22;11649;48.090;9.754;2024-03-02T08:44:55;6.80;99.90
22966;DHT22;11649;48.090;9.754;2024-03-02T08:47:22;6.90;99.90
22966;DHT22;11649;48.090;9.754;2024-03-02T08:49:49;7.00;99.90
22966;DHT22;11649;48.090;9.754;2024-03-02T08:52:15;7.20;99.90
22966;DHT22;11649;48.090;9.754;2024-03-02T08:54:42;7.10;99.90
22966;DHT22;11649;48.090;9.754;2024-03-02T08:57:09;7.20;99.90
22966;DHT22;11649;48.090;9.754;2024-03-02T08:59:36;7.20;99.90
22966;DHT22;11649;48.090;9.754;2024-03-02T09:02:03;7.00;99.90
22966;DHT22;11649;48.090;9.754;2024-03-02T09:04:30;7.00;99.90
22966;DHT22;11649;48.090;9.754;2024-03-02T09:07:00;7.00;99.90
22966;DHT22;11649;48.090;9.754;2024-03-02T09:09:27;7.20;99.90
22966;DHT22;11649;48.090;9.754;2024-03-02T09:11:54;6.90;99.90
22966;DHT22;11649;48.090;9.754;2024-03-02T09:14:35;6.50;99.90
22966;DHT22;11649;48.090;9.754;2024-03-02T09:17:02;6.70;99.90
22966;DHT22;11649;48.090;9.754;2024-03-02T09:19:29;6.90;99.90
22966;DHT22;11649;48.090;9.754;2024-03-02T09:21:56;7.20;99.90
22966;DHT22;11649;48.090;9.754;2024-03-02T09:24:22;7.40;99.90
22966;DHT22;11649;48.090;9.754;2024-03-02T09:26:49;7.50;99.90
22966;DHT22;11649;48.090;9.754;2024-03-02T09:29:16;7.60;99.90
22966;DHT22;11649;48.090;9.754;2024-03-02T09:31:43;7.60;99.90
22966;DHT22;11649;48.090;9.754;2024-03-02T09:34:10;7.70;99.90
22966;DHT22;11649;48.090;9.754;2024-03-02T09:36:37;7.90;99.90
22966;DHT22;11649;48.090;9.754;2024-03-02T09:39:04;8.00;99.90
22966;DHT22;11649;48.090;9.754;2024-03-02T09:41:32;8.10;99.90
22966;DHT22;11649;48.090;9.754;2024-03-02T09:44:00;8.20;99.90
22966;DHT22;11649;48.090;9.754;2024-03-02T09:46:27;8.20;99.90
22966;DHT22;11649;48.090;9.754;2024-03-02T09:49:08;8.30;99.90
22966;DHT22;11649;48.090;9.754;2024-03-02T09:51:35;8.20;99.90
22966;DHT22;11649;48.090;9.754;2024-03-02T09:54:04;8.30;99.90
22966;DHT22;11649;48.090;9.754;2024-03-02T09:56:46;8.60;99.90
22966;DHT22;11649;48.090;9.754;2024-03-02T09:59:13;8.60;99.90
22966;DHT22;11649;48.090;9.754;2024-03-02T10:02:02;9.10;99.90
22966;DHT22;11649;48.090;9.754;2024-03-02T10:04:30;10.40;99.90
22966;DHT22;11649;48.090;9.754;2024-03-02T10:10:14;11.50;99.90
22966;DHT22;11649;48.090;9.754;2024-03-02T10:12:41;12.50;99.90
22966;DHT22;11649;48.090;9.754;2024-03-02T10:15:08;13.00;99.90
22966;DHT22;11649;48.090;9.754;2024-03-02T10:17:36;13.10;99.90
22966;DHT22;11649;48.090;9.754;2024-03-02T10:20:23;13.70;99.90
22966;DHT22;11649;48.090;9.754;2024-03-02T10:22:50;13.80;99.90
22966;DHT22;11649;48.090;9.754;2024-03-02T10:25:33;13.20;99.90
22966;DHT22;11649;48.090;9.754;2024-03-02T10:28:08;13.40;99.90
22966;DHT22;11649;48.090;9.754;2024-03-02T10:30:35;13.40;99.90
22966;DHT22;11649;48.090;9.754;2024-03-02T10:33:02;13.50;99.90
22966;DHT22;11649;48.090;9.754;2024-03-02T10:35:30;13.70;99.90
22966;DHT22;11649;48.090;9.754;2024-03-02T10:37:59;13.60;99.90
22966;DHT22;11649;48.090;9.754;2024-03-02T10:40:27;12.70;99.90
22966;DHT22;11649;48.090;9.754;2024-03-02T10:42:54;12.50;99.90
22966;DHT22;11649;48.090;9.754;2024-03-02T10:45:21;12.60;99.90
22966;DHT22;11649;48.090;9.754;2024-03-02T10:47:51;12.90;99.90
22966;DHT22;11649;48.090;9.754;2024-03-02T10:50:18;12.80;99.90
22966;DHT22;11649;48.090;9.754;2024-03-02T10:52:45;13.00;99.90
22966;DHT22;11649;48.090;9.754;2024-03-02T10:55:12;13.00;99.90
22966;DHT22;11649;48.090;9.754;2024-03-02T10:57:52;13.20;99.90
22966;DHT22;11649;48.090;9.754;2024-03-02T11:00:25;13.40;99.90
22966;DHT22;11649;48.090;9.754;2024-03-02T11:02:58;13.60;99.90
22966;DHT22;11649;48.090;9.754;2024-03-02T11:05:32;13.80;99.90
22966;DHT22;11649;48.090;9.754;2024-03-02T11:08:02;13.80;99.90
22966;DHT22;11649;48.090;9.754;2024-03-02T11:10:35;13.60;99.90
22966;DHT22;11649;48.090;9.754;2024-03-02T11:13:09;13.60;99.90
22966;DHT22;11649;48.090;9.754;2024-03-02T11:15:37;13.00;99.90
22966;DHT22;11649;48.090;9.754;2024-03-02T11:18:07;12.70;99.90
22966;DHT22;11649;48.090;9.754;2024-03-02T11:20:41;13.00;99.90
22966;DHT22;11649;48.090;9.754;2024-03-02T11:23:09;13.10;99.90
22966;DHT22;11649;48.090;9.754;2024-03-02T11:25:36;13.00;99.90
22966;DHT22;11649;48.090;9.754;2024-03-02T11:28:04;13.60;99.90
22966;DHT22;11649;48.090;9.754;2024-03-02T11:32:59;13.90;99.90
22966;DHT22;11649;48.090;9.754;2024-03-02T11:35:53;13.90;99.90
22966;DHT22;11649;48.090;9.754;2024-03-02T11:38:22;14.10;99.90
22966;DHT22;11649;48.090;9.754;2024-03-02T11:40:49;14.30;99.90
22966;DHT22;11649;48.090;9.754;2024-03-02T11:43:16;14.30;99.90
22966;DHT22;11649;48.090;9.754;2024-03-02T11:45:43;14.50;99.90
22966;DHT22;11649;48.090;9.754;2024-03-02T11:48:15;14.40;99.90
22966;DHT22;11649;48.090;9.754;2024-03-02T11:50:46;14.50;99.90
22966;DHT22;11649;48.090;9.754;2024-03-02T11:53:13;14.70;99.90
22966;DHT22;11649;48.090;9.754;2024-03-02T11:56:09;15.00;99.90
22966;DHT22;11649;48.090;9.754;2024-03-02T11:58:39;15.00;99.90
22966;DHT22;11649;48.090;9.754;2024-03-02T12:01:08;14.90;99.90
22966;DHT22;11649;48.090;9.754;2024-03-02T12:03:35;15.00;99.90
22966;DHT22;11649;48.090;9.754;2024-03-02T12:06:02;14.50;99.90
22966;DHT22;11649;48.090;9.754;2024-03-02T12:08:29;14.30;99.90
22966;DHT22;11649;48.090;9.754;2024-03-02T12:11:01;14.10;99.90
22966;DHT22;11649;48.090;9.754;2024-03-02T12:13:30;14.20;99.90
22966;DHT22;11649;48.090;9.754;2024-03-02T12:15:57;14.50;99.90
22966;DHT22;11649;48.090;9.754;2024-03-02T12:18:26;14.90;99.90
22966;DHT22;11649;48.090;9.754;2024-03-02T12:20:53;14.80;99.90
22966;DHT22;11649;48.090;9.754;2024-03-02T12:23:24;14.60;99.90
22966;DHT22;11649;48.090;9.754;2024-03-02T12:25:52;14.90;99.90
22966;DHT22;11649;48.090;9.754;2024-03-02T12:28:19;15.20;99.90
22966;DHT22;11649;48.090;9.754;2024-03-02T12:30:46;15.60;99.90
22966;DHT22;11649;48.090;9.754;2024-03-02T12:33:14;15.10;99.90
22966;DHT22;11649;48.090;9.754;2024-03-02T12:35:41;15.60;99.90
22966;DHT22;11649;48.090;9.754;2024-03-02T12:38:09;15.50;99.90
22966;DHT22;11649;48.090;9.754;2024-03-02T12:40:42;16.50;99.90
22966;DHT22;11649;48.090;9.754;2024-03-02T12:43:09;16.10;99.90
22966;DHT22;11649;48.090;9.754;2024-03-02T12:45:37;15.40;99.90
22966;DHT22;11649;48.090;9.754;2024-03-02T12:48:04;14.30;99.90
22966;DHT22;11649;48.090;9.754;2024-03-02T12:50:33;14.90;99.90
22966;DHT22;11649;48.090;9.754;2024-03-02T12:53:00;14.30;99.90
22966;DHT22;11649;48.090;9.754;2024-03-02T12:55:27;14.90;99.90
22966;DHT22;11649;48.090;9.754;2024-03-02T12:57:55;15.00;99.90
22966;DHT22;11649;48.090;9.754;2024-03-02T13:00:23;15.20;99.90
22966;DHT22;11649;48.090;9.754;2024-03-02T13:02:50;14.90;99.90
22966;DHT22;11649;48.090;9.754;2024-03-02T13:05:19;15.20;99.90
22966;DHT22;11649;48.090;9.754;2024-03-02T13:07:57;15.00;99.90
22966;DHT22;11649;48.090;9.754;2024-03-02T13:10:24;15.00;99.30
22966;DHT22;11649;48.090;9.754;2024-03-02T13:12:51;15.00;99.90
22966;DHT22;11649;48.090;9.754;2024-03-02T13:15:18;15.10;99.60
22966;DHT22;11649;48.090;9.754;2024-03-02T13:17:45;15.00;99.90
22966;DHT22;11649;48.090;9.754;2024-03-02T13:20:16;15.30;99.90
22966;DHT22;11649;48.090;9.754;2024-03-02T13:22:44;15.50;99.90
22966;DHT22;11649;48.090;9.754;2024-03-02T13:25:11;16.20;98.10
22966;DHT22;11649;48.090;9.754;2024-03-02T13:27:39;15.70;99.10
22966;DHT22;11649;48.090;9.754;2024-03-02T13:30:07;16.30;97.80
22966;DHT22;11649;48.090;9.754;2024-03-02T13:32:36;16.70;94.50
22966;DHT22;11649;48.090;9.754;2024-03-02T13:35:18;17.10;90.10
22966;DHT22;11649;48.090;9.754;2024-03-02T13:37:45;15.90;91.70
22966;DHT22;11649;48.090;9.754;2024-03-02T13:40:11;15.30;93.20
22966;DHT22;11649;48.090;9.754;2024-03-02T13:42:44;14.70;95.30
22966;DHT22;11649;48.090;9.754;2024-03-02T13:45:11;14.30;96.90
22966;DHT22;11649;48.090;9.754;2024-03-02T13:47:37;14.40;96.10
22966;DHT22;11649;48.090;9.754;2024-03-02T13:50:04;14.50;95.70
22966;DHT22;11649;48.090;9.754;2024-03-02T13:52:32;14.50;96.50
22966;DHT22;11649;48.090;9.754;2024-03-02T13:54:59;14.20;97.30
22966;DHT22;11649;48.090;9.754;2024-03-02T13:57:26;14.00;97.40
22966;DHT22;11649;48.090;9.754;2024-03-02T13:59:53;14.10;97.80
22966;DHT22;11649;48.090;9.754;2024-03-02T14:02:21;14.10;95.70
22966;DHT22;11649;48.090;9.754;2024-03-02T14:04:48;14.10;95.20
22966;DHT22;11649;48.090;9.754;2024-03-02T14:07:18;14.70;93.00
22966;DHT22;11649;48.090;9.754;2024-03-02T14:09:45;14.60;91.50
22966;DHT22;11649;48.090;9.754;2024-03-02T14:12:13;14.80;91.60
22966;DHT22;11649;48.090;9.754;2024-03-02T14:14:40;15.90;89.10
22966;DHT22;11649;48.090;9.754;2024-03-02T14:17:06;16.80;84.40
22966;DHT22;11649;48.090;9.754;2024-03-02T14:19:38;17.50;79.00
22966;DHT22;11649;48.090;9.754;2024-03-02T14:22:05;17.40;78.10
22966;DHT22;11649;48.090;9.754;2024-03-02T14:24:32;17.20;71.40
22966;DHT22;11649;48.090;9.754;2024-03-02T14:26:59;16.70;71.70
22966;DHT22;11649;48.090;9.754;2024-03-02T14:29:42;16.30;74.70
22966;DHT22;11649;48.090;9.754;2024-03-02T14:32:09;15.40;76.00
22966;DHT22;11649;48.090;9.754;2024-03-02T14:34:35;15.40;78.30
22966;DHT22;11649;48.090;9.754;2024-03-02T14:37:05;15.00;80.90
22966;DHT22;11649;48.090;9.754;2024-03-02T14:39:32;14.90;85.00
22966;DHT22;11649;48.090;9.754;2024-03-02T14:42:01;15.00;85.00
22966;DHT22;11649;48.090;9.754;2024-03-02T14:44:28;14.70;84.60
22966;DHT22;11649;48.090;9.754;2024-03-02T14:46:55;14.70;86.10
22966;DHT22;11649;48.090;9.754;2024-03-02T14:49:25;14.90;89.50
22966;DHT22;11649;48.090;9.754;2024-03-02T14:51:52;15.20;87.10
22966;DHT22;11649;48.090;9.754;2024-03-02T14:54:19;16.00;84.60
22966;DHT22;11649;48.090;9.754;2024-03-02T14:56:46;16.70;79.50
22966;DHT22;11649;48.090;9.754;2024-03-02T14:59:13;16.90;76.50
22966;DHT22;11649;48.090;9.754;2024-03-02T15:01:40;17.30;77.80
22966;DHT22;11649;48.090;9.754;2024-03-02T15:04:07;17.00;75.10
22966;DHT22;11649;48.090;9.754;2024-03-02T15:06:34;16.90;75.60
22966;DHT22;11649;48.090;9.754;2024-03-02T15:09:01;16.60;76.20
22966;DHT22;11649;48.090;9.754;2024-03-02T15:11:28;16.80;75.80
22966;DHT22;11649;48.090;9.754;2024-03-02T15:13:55;16.30;77.00
22966;DHT22;11649;48.090;9.754;2024-03-02T15:16:22;15.80;77.70
22966;DHT22;11649;48.090;9.754;2024-03-02T15:18:49;15.40;79.90
22966;DHT22;11649;48.090;9.754;2024-03-02T15:21:15;15.50;80.20
22966;DHT22;11649;48.090;9.754;2024-03-02T15:23:44;15.90;81.30
22966;DHT22;11649;48.090;9.754;2024-03-02T15:26:11;14.60;80.30
22966;DHT22;11649;48.090;9.754;2024-03-02T15:28:38;14.80;82.00
22966;DHT22;11649;48.090;9.754;2024-03-02T15:31:05;14.80;82.10
22966;DHT22;11649;48.090;9.754;2024-03-02T15:33:32;14.30;85.80
22966;DHT22;11649;48.090;9.754;2024-03-02T15:36:00;14.20;87.20
22966;DHT22;11649;48.090;9.754;2024-03-02T15:38:28;13.80;90.30
22966;DHT22;11649;48.090;9.754;2024-03-02T15:41:01;13.50;90.30
22966;DHT22;11649;48.090;9.754;2024-03-02T15:43:27;13.30;92.40
22966;DHT22;11649;48.090;9.754;2024-03-02T15:45:55;13.30;92.00
22966;DHT22;11649;48.090;9.754;2024-03-02T15:48:25;13.30;92.30
22966;DHT22;11649;48.090;9.754;2024-03-02T15:50:53;13.20;92.70
22966;DHT22;11649;48.090;9.754;2024-03-02T15:53:20;13.00;93.40
22966;DHT22;11649;48.090;9.754;2024-03-02T15:55:46;13.00;93.80